sensor_id;sensor_type;location;lat;lon;timestamp;pressure;altitude;pressure_sealevel;temperature;humidity
11017;BME280;54687;50.800;6.772;2023-09-19T00:00:06;94298.63;;;-144.06;28.84
11017;BME280;54687;50.800;6.772;2023-09-19T00:02:38;94321.91;;;-144.06;28.70
11017;BME280;54687;50.800;6.772;2023-09-19T00:05:05;94309.19;;;-144.06;28.53
11017;BME280;54687;50.800;6.772;2023-09-19T00:07:31;94332.47;;;-144.06;28.53
11017;BME280;54687;50.800;6.772;2023-09-19T00:09:58;94334.59;;;-144.06;28.52
11017;BME280;54687;50.800;6.772;2023-09-19T00:12:25;94349.41;;;-144.06;28.65
11017;BME280;54687;50.800;6.772;2023-09-19T00:14:54;94370.56;;;-144.06;28.77
11017;BME280;54687;50.800;6.772;2023-09-19T00:17:22;94309.19;;;-144.06;28.53
11017;BME280;54687;50.800;6.772;2023-09-19T00:19:50;94294.38;;;-144.06;28.62
11017;BME280;54687;50.800;6.772;2023-09-19T00:22:20;94334.59;;;-144.06;28.65
11017;BME280;54687;50.800;6.772;2023-09-19T00:24:50;94321.91;;;-144.06;28.82
11017;BME280;54687;50.800;6.772;2023-09-19T00:27:18;94302.84;;;-144.06;28.54
11017;BME280;54687;50.800;6.772;2023-09-19T00:29:45;94387.50;;;-144.06;28.92
11017;BME280;54687;50.800;6.772;2023-09-19T00:32:17;94368.47;;;-144.06;28.97
11017;BME280;54687;50.800;6.772;2023-09-19T00:34:47;94315.53;;;-144.06;28.90
11017;BME280;54687;50.800;6.772;2023-09-19T00:37:17;94353.66;;;-144.06;28.95
11017;BME280;54687;50.800;6.772;2023-09-19T00:39:47;94349.41;;;-144.06;28.98
11017;BME280;54687;50.800;6.772;2023-09-19T00:42:19;94383.28;;;-144.06;28.64
11017;BME280;54687;50.800;6.772;2023-09-19T00:44:50;94366.34;;;-144.06;28.65
11017;BME280;54687;50.800;6.772;2023-09-19T00:47:20;94440.44;;;-144.06;29.12
11017;BME280;54687;50.800;6.772;2023-09-19T00:49:47;94389.63;;;-144.06;29.13
11017;BME280;54687;50.800;6.772;2023-09-19T00:52:17;94387.50;;;-144.06;28.98
11017;BME280;54687;50.800;6.772;2023-09-19T00:54:46;94393.84;;;-144.06;28.99
11017;BME280;54687;50.800;6.772;2023-09-19T00:57:14;94370.56;;;-144.06;29.00
11017;BME280;54687;50.800;6.772;2023-09-19T00:59:44;94340.94;;;-144.06;28.60
11017;BME280;54687;50.800;6.772;2023-09-19T01:02:13;94304.97;;;-144.06;28.84
11017;BME280;54687;50.800;6.772;2023-09-19T01:04:47;94362.09;;;-144.06;28.53
11017;BME280;54687;50.800;6.772;2023-09-19T01:07:14;94349.41;;;-144.06;28.73
11017;BME280;54687;50.800;6.772;2023-09-19T01:09:41;94362.09;;;-144.06;28.38
11017;BME280;54687;50.800;6.772;2023-09-19T01:12:12;94387.50;;;-144.06;28.36
11017;BME280;54687;50.800;6.772;2023-09-19T01:14:49;94357.88;;;-144.06;28.21
11017;BME280;54687;50.800;6.772;2023-09-19T01:17:25;94319.78;;;-144.06;28.27
11017;BME280;54687;50.800;6.772;2023-09-19T01:20:21;94357.88;;;-144.06;28.24
11017;BME280;54687;50.800;6.772;2023-09-19T01:22:58;94315.53;;;-144.06;28.25
11017;BME280;54687;50.800;6.772;2023-09-19T01:25:50;94309.19;;;-144.06;28.09
11017;BME280;54687;50.800;6.772;2023-09-19T01:28:34;94362.09;;;-144.06;28.57
11017;BME280;54687;50.800;6.772;2023-09-19T01:31:11;94366.34;;;-144.06;28.77
11017;BME280;54687;50.800;6.772;2023-09-19T01:33:54;94340.94;;;-144.06;28.48
11017;BME280;54687;50.800;6.772;2023-09-19T01:36:25;94391.75;;;-144.06;28.43
11017;BME280;54687;50.800;6.772;2023-09-19T01:38:53;94387.50;;;-144.06;28.23
11017;BME280;54687;50.800;6.772;2023-09-19T01:41:30;94412.91;;;-144.06;28.26
11017;BME280;54687;50.800;6.772;2023-09-19T01:43:59;94470.06;;;-144.06;28.55
11017;BME280;54687;50.800;6.772;2023-09-19T01:46:33;94453.13;;;-144.06;28.15
11017;BME280;54687;50.800;6.772;2023-09-19T01:49:09;94501.81;;;-144.06;28.46
11017;BME280;54687;50.800;6.772;2023-09-19T01:51:49;94436.19;;;-144.06;28.24
11017;BME280;54687;50.800;6.772;2023-09-19T01:54:25;94476.41;;;-144.06;28.60
11017;BME280;54687;50.800;6.772;2023-09-19T01:56:57;94472.19;;;-144.06;28.31
11017;BME280;54687;50.800;6.772;2023-09-19T01:59:33;94506.03;;;-144.06;28.43
11017;BME280;54687;50.800;6.772;2023-09-19T02:02:03;94476.41;;;-144.06;28.62
11017;BME280;54687;50.800;6.772;2023-09-19T02:04:32;94440.44;;;-144.06;28.34
11017;BME280;54687;50.800;6.772;2023-09-19T02:06:59;94531.44;;;-144.06;28.43
11017;BME280;54687;50.800;6.772;2023-09-19T02:09:26;94503.94;;;-144.06;28.70
11017;BME280;54687;50.800;6.772;2023-09-19T02:11:53;94535.69;;;-144.06;28.80
11017;BME280;54687;50.800;6.772;2023-09-19T02:14:21;94510.28;;;-144.06;28.75
11017;BME280;54687;50.800;6.772;2023-09-19T02:16:47;94531.44;;;-144.06;28.61
11017;BME280;54687;50.800;6.772;2023-09-19T02:19:17;94539.91;;;-144.06;28.92
11017;BME280;54687;50.800;6.772;2023-09-19T02:21:43;94535.69;;;-144.06;28.88
11017;BME280;54687;50.800;6.772;2023-09-19T02:24:10;94578.00;;;-144.06;28.80
11017;BME280;54687;50.800;6.772;2023-09-19T02:26:37;94544.16;;;-144.06;28.87
11017;BME280;54687;50.800;6.772;2023-09-19T02:29:04;94510.28;;;-144.06;28.87
11017;BME280;54687;50.800;6.772;2023-09-19T02:31:31;94527.22;;;-144.06;28.55
11017;BME280;54687;50.800;6.772;2023-09-19T02:33:57;94506.03;;;-144.06;28.58
11017;BME280;54687;50.800;6.772;2023-09-19T02:36:24;94516.63;;;-144.06;28.77
11017;BME280;54687;50.800;6.772;2023-09-19T02:38:51;94531.44;;;-144.06;28.91
11017;BME280;54687;50.800;6.772;2023-09-19T02:41:18;94495.47;;;-144.06;28.80
11017;BME280;54687;50.800;6.772;2023-09-19T02:43:45;94510.28;;;-144.06;28.58
11017;BME280;54687;50.800;6.772;2023-09-19T02:46:13;94480.66;;;-144.06;28.98
11017;BME280;54687;50.800;6.772;2023-09-19T02:48:41;94533.56;;;-144.06;28.91
11017;BME280;54687;50.800;6.772;2023-09-19T02:51:07;94556.84;;;-144.06;28.72
11017;BME280;54687;50.800;6.772;2023-09-19T02:53:36;94537.78;;;-144.06;28.55
11017;BME280;54687;50.800;6.772;2023-09-19T02:56:03;94582.25;;;-144.06;28.45
11017;BME280;54687;50.800;6.772;2023-09-19T02:58:31;94594.94;;;-144.06;28.87
11017;BME280;54687;50.800;6.772;2023-09-19T03:01:08;94594.94;;;-144.06;28.80
11017;BME280;54687;50.800;6.772;2023-09-19T03:03:34;94552.63;;;-144.06;28.63
11017;BME280;54687;50.800;6.772;2023-09-19T03:06:03;94569.53;;;-144.06;28.79
11017;BME280;54687;50.800;6.772;2023-09-19T03:08:30;94614.00;;;-144.06;28.65
11017;BME280;54687;50.800;6.772;2023-09-19T03:10:58;94561.09;;;-144.06;28.75
11017;BME280;54687;50.800;6.772;2023-09-19T03:13:26;94548.38;;;-144.06;28.58
11017;BME280;54687;50.800;6.772;2023-09-19T03:15:54;94571.66;;;-144.06;28.90
11017;BME280;54687;50.800;6.772;2023-09-19T03:18:22;94573.78;;;-144.06;28.56
11017;BME280;54687;50.800;6.772;2023-09-19T03:20:52;94607.66;;;-144.06;28.74
11017;BME280;54687;50.800;6.772;2023-09-19T03:23:20;94565.31;;;-144.06;28.79
11017;BME280;54687;50.800;6.772;2023-09-19T03:25:47;94603.41;;;-144.06;28.47
11017;BME280;54687;50.800;6.772;2023-09-19T03:28:15;94614.00;;;-144.06;28.77
11017;BME280;54687;50.800;6.772;2023-09-19T03:30:43;94624.59;;;-144.06;28.72
11017;BME280;54687;50.800;6.772;2023-09-19T03:33:11;94607.66;;;-144.06;28.77
11017;BME280;54687;50.800;6.772;2023-09-19T03:35:39;94633.06;;;-144.06;28.79
11017;BME280;54687;50.800;6.772;2023-09-19T03:38:06;94616.13;;;-144.06;28.95
11017;BME280;54687;50.800;6.772;2023-09-19T03:40:33;94637.28;;;-144.06;28.80
11017;BME280;54687;50.800;6.772;2023-09-19T03:43:03;94639.41;;;-144.06;28.77
11017;BME280;54687;50.800;6.772;2023-09-19T03:45:31;94664.81;;;-144.06;28.53
11017;BME280;54687;50.800;6.772;2023-09-19T03:47:57;94637.28;;;-144.06;28.51
11017;BME280;54687;50.800;6.772;2023-09-19T03:50:24;94616.13;;;-144.06;28.61
11017;BME280;54687;50.800;6.772;2023-09-19T03:52:56;94588.59;;;-144.06;28.42
11017;BME280;54687;50.800;6.772;2023-09-19T03:55:22;94726.19;;;-144.06;28.42
11017;BME280;54687;50.800;6.772;2023-09-19T03:57:49;94641.53;;;-144.06;28.33
11017;BME280;54687;50.800;6.772;2023-09-19T04:00:15;94607.66;;;-144.06;28.58
11017;BME280;54687;50.800;6.772;2023-09-19T04:02:47;94607.66;;;-144.06;28.60
11017;BME280;54687;50.800;6.772;2023-09-19T04:05:14;94645.75;;;-144.06;28.39
11017;BME280;54687;50.800;6.772;2023-09-19T04:07:40;94669.03;;;-144.06;28.75
11017;BME280;54687;50.800;6.772;2023-09-19T04:10:08;94633.06;;;-144.06;28.53
11017;BME280;54687;50.800;6.772;2023-09-19T04:12:36;94656.34;;;-144.06;28.58
11017;BME280;54687;50.800;6.772;2023-09-19T04:15:04;94664.81;;;-144.06;28.48
11017;BME280;54687;50.800;6.772;2023-09-19T04:17:31;94637.28;;;-144.06;28.31
11017;BME280;54687;50.800;6.772;2023-09-19T04:19:59;94647.88;;;-144.06;28.42
11017;BME280;54687;50.800;6.772;2023-09-19T04:22:26;94692.31;;;-144.06;28.09
11017;BME280;54687;50.800;6.772;2023-09-19T04:24:53;94692.31;;;-144.06;28.30
11017;BME280;54687;50.800;6.772;2023-09-19T04:27:19;94656.34;;;-144.06;28.30
11017;BME280;54687;50.800;6.772;2023-09-19T04:29:46;94709.25;;;-144.06;28.09
11017;BME280;54687;50.800;6.772;2023-09-19T04:32:12;94717.72;;;-144.06;28.15
11017;BME280;54687;50.800;6.772;2023-09-19T04:34:41;94721.97;;;-144.06;28.08
11017;BME280;54687;50.800;6.772;2023-09-19T04:37:09;94673.28;;;-144.06;28.38
11017;BME280;54687;50.800;6.772;2023-09-19T04:39:36;94685.97;;;-144.06;28.24
11017;BME280;54687;50.800;6.772;2023-09-19T04:42:03;94603.41;;;-144.06;28.14
11017;BME280;54687;50.800;6.772;2023-09-19T04:44:30;94726.19;;;-144.06;28.48
11017;BME280;54687;50.800;6.772;2023-09-19T04:46:56;94764.28;;;-144.06;28.27
11017;BME280;54687;50.800;6.772;2023-09-19T04:49:23;94713.50;;;-144.06;28.33
11017;BME280;54687;50.800;6.772;2023-09-19T04:51:49;94751.59;;;-144.06;28.39
11017;BME280;54687;50.800;6.772;2023-09-19T04:54:17;94700.78;;;-144.06;28.11
11017;BME280;54687;50.800;6.772;2023-09-19T04:56:44;94690.22;;;-144.06;28.26
11017;BME280;54687;50.800;6.772;2023-09-19T04:59:10;94738.91;;;-144.06;28.43
11017;BME280;54687;50.800;6.772;2023-09-19T05:01:37;94768.53;;;-144.06;28.26
11017;BME280;54687;50.800;6.772;2023-09-19T05:04:04;94755.84;;;-144.06;28.42
11017;BME280;54687;50.800;6.772;2023-09-19T05:06:31;94899.78;;;-144.06;28.56
11017;BME280;54687;50.800;6.772;2023-09-19T05:09:00;94774.88;;;-144.06;28.41
11017;BME280;54687;50.800;6.772;2023-09-19T05:11:32;94681.75;;;-144.06;28.43
11017;BME280;54687;50.800;6.772;2023-09-19T05:13:59;94777.00;;;-144.06;28.71
11017;BME280;54687;50.800;6.772;2023-09-19T05:16:29;94817.22;;;-144.06;28.62
11017;BME280;54687;50.800;6.772;2023-09-19T05:18:56;94806.63;;;-144.06;28.60
11017;BME280;54687;50.800;6.772;2023-09-19T05:21:23;94857.44;;;-144.06;28.58
11017;BME280;54687;50.800;6.772;2023-09-19T05:23:51;94884.97;;;-144.06;28.73
11017;BME280;54687;50.800;6.772;2023-09-19T05:26:18;94798.16;;;-144.06;28.86
11017;BME280;54687;50.800;6.772;2023-09-19T05:28:47;94897.66;;;-144.06;28.86
11017;BME280;54687;50.800;6.772;2023-09-19T05:31:14;94876.50;;;-144.06;28.94
11017;BME280;54687;50.800;6.772;2023-09-19T05:33:40;94870.16;;;-144.06;29.07
11017;BME280;54687;50.800;6.772;2023-09-19T05:36:07;94904.00;;;-144.06;28.95
11017;BME280;54687;50.800;6.772;2023-09-19T05:38:36;94901.91;;;-144.06;29.09
11017;BME280;54687;50.800;6.772;2023-09-19T05:41:05;94904.00;;;-144.06;29.16
11017;BME280;54687;50.800;6.772;2023-09-19T05:43:32;94959.06;;;-144.06;29.23
11017;BME280;54687;50.800;6.772;2023-09-19T05:46:01;94920.94;;;-144.06;29.15
11017;BME280;54687;50.800;6.772;2023-09-19T05:48:28;94808.75;;;-144.06;29.05
11017;BME280;54687;50.800;6.772;2023-09-19T05:50:56;94851.09;;;-144.06;29.04
11017;BME280;54687;50.800;6.772;2023-09-19T05:53:22;94834.16;;;-144.06;28.95
11017;BME280;54687;50.800;6.772;2023-09-19T05:55:49;94823.56;;;-144.06;28.85
11017;BME280;54687;50.800;6.772;2023-09-19T05:58:15;94796.06;;;-144.06;28.80
11017;BME280;54687;50.800;6.772;2023-09-19T06:00:43;94798.16;;;-144.06;28.90
11017;BME280;54687;50.800;6.772;2023-09-19T06:03:11;94838.38;;;-144.06;29.08
11017;BME280;54687;50.800;6.772;2023-09-19T06:05:39;94785.47;;;-144.06;28.97
11017;BME280;54687;50.800;6.772;2023-09-19T06:08:07;94819.34;;;-144.06;28.92
11017;BME280;54687;50.800;6.772;2023-09-19T06:10:35;94772.75;;;-144.06;28.72
11017;BME280;54687;50.800;6.772;2023-09-19T06:13:02;94783.34;;;-144.06;28.90
11017;BME280;54687;50.800;6.772;2023-09-19T06:15:29;94789.69;;;-144.06;28.89
11017;BME280;54687;50.800;6.772;2023-09-19T06:17:59;94777.00;;;-144.06;28.82
11017;BME280;54687;50.800;6.772;2023-09-19T06:20:29;94751.59;;;-144.06;28.65
11017;BME280;54687;50.800;6.772;2023-09-19T06:22:56;94743.13;;;-144.06;28.70
11017;BME280;54687;50.800;6.772;2023-09-19T06:25:22;94736.78;;;-144.06;28.65
11017;BME280;54687;50.800;6.772;2023-09-19T06:27:50;94734.66;;;-144.06;28.65
11017;BME280;54687;50.800;6.772;2023-09-19T06:30:20;94730.44;;;-144.06;28.64
11017;BME280;54687;50.800;6.772;2023-09-19T06:32:47;94715.59;;;-144.06;28.63
11017;BME280;54687;50.800;6.772;2023-09-19T06:35:15;94709.25;;;-144.06;28.70
11017;BME280;54687;50.800;6.772;2023-09-19T06:37:43;94671.16;;;-144.06;28.56
11017;BME280;54687;50.800;6.772;2023-09-19T06:40:11;94633.06;;;-144.06;28.60
11017;BME280;54687;50.800;6.772;2023-09-19T06:42:40;94647.88;;;-144.06;28.14
11017;BME280;54687;50.800;6.772;2023-09-19T06:45:08;94660.56;;;-144.06;28.34
11017;BME280;54687;50.800;6.772;2023-09-19T06:47:37;94586.47;;;-144.06;28.40
11017;BME280;54687;50.800;6.772;2023-09-19T06:50:04;94569.53;;;-144.06;28.41
11017;BME280;54687;50.800;6.772;2023-09-19T06:52:31;94582.25;;;-144.06;28.29
11017;BME280;54687;50.800;6.772;2023-09-19T06:55:00;94535.69;;;-144.06;28.21
11017;BME280;54687;50.800;6.772;2023-09-19T06:57:31;94491.22;;;-144.06;28.09
11017;BME280;54687;50.800;6.772;2023-09-19T06:59:58;94489.13;;;-144.06;28.01
11017;BME280;54687;50.800;6.772;2023-09-19T07:02:26;94484.88;;;-144.06;28.13
11017;BME280;54687;50.800;6.772;2023-09-19T07:04:53;94442.53;;;-144.06;27.90
11017;BME280;54687;50.800;6.772;2023-09-19T07:07:20;94455.25;;;-144.06;27.72
11017;BME280;54687;50.800;6.772;2023-09-19T07:09:46;94442.53;;;-144.06;27.79
11017;BME280;54687;50.800;6.772;2023-09-19T07:12:15;94400.22;;;-144.06;27.70
11017;BME280;54687;50.800;6.772;2023-09-19T07:14:42;94362.09;;;-144.06;27.69
11017;BME280;54687;50.800;6.772;2023-09-19T07:17:09;94311.31;;;-144.06;27.80
11017;BME280;54687;50.800;6.772;2023-09-19T07:19:35;94311.31;;;-144.06;27.52
11017;BME280;54687;50.800;6.772;2023-09-19T07:22:02;94254.16;;;-144.06;27.74
11017;BME280;54687;50.800;6.772;2023-09-19T07:24:28;94245.69;;;-144.06;27.37
11017;BME280;54687;50.800;6.772;2023-09-19T07:26:55;94222.41;;;-144.06;27.27
11017;BME280;54687;50.800;6.772;2023-09-19T07:29:23;94243.56;;;-144.06;27.53
11017;BME280;54687;50.800;6.772;2023-09-19T07:31:51;94213.94;;;-144.06;27.60
11017;BME280;54687;50.800;6.772;2023-09-19T07:34:18;94235.13;;;-144.06;27.23
11017;BME280;54687;50.800;6.772;2023-09-19T07:36:46;94112.34;;;-144.06;27.12
11017;BME280;54687;50.800;6.772;2023-09-19T07:39:12;94044.63;;;-144.06;26.99
11017;BME280;54687;50.800;6.772;2023-09-19T07:41:39;94175.84;;;-144.06;27.21
11017;BME280;54687;50.800;6.772;2023-09-19T07:44:05;94120.81;;;-144.06;27.11
11017;BME280;54687;50.800;6.772;2023-09-19T07:46:33;94089.06;;;-144.06;26.57
11017;BME280;54687;50.800;6.772;2023-09-19T07:49:00;94048.88;;;-144.06;26.57
11017;BME280;54687;50.800;6.772;2023-09-19T07:51:27;94015.00;;;-144.06;26.53
11017;BME280;54687;50.800;6.772;2023-09-19T07:53:54;93993.84;;;-144.06;26.52
11017;BME280;54687;50.800;6.772;2023-09-19T07:56:21;93926.09;;;-144.06;26.17
11017;BME280;54687;50.800;6.772;2023-09-19T07:58:48;93849.91;;;-144.06;26.19
11017;BME280;54687;50.800;6.772;2023-09-19T08:01:14;93862.63;;;-144.06;26.35
11017;BME280;54687;50.800;6.772;2023-09-19T08:03:42;93879.53;;;-144.06;25.94
11017;BME280;54687;50.800;6.772;2023-09-19T08:06:10;93909.19;;;-144.06;26.37
11017;BME280;54687;50.800;6.772;2023-09-19T08:08:39;93858.38;;;-144.06;26.27
11017;BME280;54687;50.800;6.772;2023-09-19T08:11:06;93896.47;;;-144.06;26.22
11017;BME280;54687;50.800;6.772;2023-09-19T08:13:36;93771.63;;;-144.06;26.16
11017;BME280;54687;50.800;6.772;2023-09-19T08:16:06;93773.72;;;-144.06;26.14
11017;BME280;54687;50.800;6.772;2023-09-19T08:18:33;93761.03;;;-144.06;26.06
11017;BME280;54687;50.800;6.772;2023-09-19T08:21:01;93657.34;;;-144.06;25.93
11017;BME280;54687;50.800;6.772;2023-09-19T08:23:28;93631.94;;;-144.06;25.58
11017;BME280;54687;50.800;6.772;2023-09-19T08:25:56;93739.88;;;-144.06;25.59
11017;BME280;54687;50.800;6.772;2023-09-19T08:28:23;93655.22;;;-144.06;25.73
11017;BME280;54687;50.800;6.772;2023-09-19T08:30:50;93604.44;;;-144.06;25.31
11017;BME280;54687;50.800;6.772;2023-09-19T08:33:16;93496.50;;;-144.06;25.48
11017;BME280;54687;50.800;6.772;2023-09-19T08:35:43;93600.19;;;-144.06;25.42
11017;BME280;54687;50.800;6.772;2023-09-19T08:38:12;93634.06;;;-144.06;25.26
11017;BME280;54687;50.800;6.772;2023-09-19T08:40:39;93568.47;;;-144.06;25.11
11017;BME280;54687;50.800;6.772;2023-09-19T08:43:07;93524.03;;;-144.06;25.17
11017;BME280;54687;50.800;6.772;2023-09-19T08:45:34;93532.47;;;-144.06;25.10
11017;BME280;54687;50.800;6.772;2023-09-19T08:48:15;93473.22;;;-144.06;24.94
11017;BME280;54687;50.800;6.772;2023-09-19T08:50:48;93405.53;;;-144.06;24.90
11017;BME280;54687;50.800;6.772;2023-09-19T08:53:21;93418.22;;;-144.06;25.11
11017;BME280;54687;50.800;6.772;2023-09-19T08:55:52;93356.84;;;-144.06;25.06
11017;BME280;54687;50.800;6.772;2023-09-19T08:58:25;93301.84;;;-144.06;24.81
11017;BME280;54687;50.800;6.772;2023-09-19T09:00:56;93333.56;;;-144.06;24.82
11017;BME280;54687;50.800;6.772;2023-09-19T09:03:24;93282.78;;;-144.06;24.95
11017;BME280;54687;50.800;6.772;2023-09-19T09:05:51;93206.63;;;-144.06;24.65
11017;BME280;54687;50.800;6.772;2023-09-19T09:08:20;93337.81;;;-144.06;24.52
11017;BME280;54687;50.800;6.772;2023-09-19T09:10:48;93329.34;;;-144.06;24.42
11017;BME280;54687;50.800;6.772;2023-09-19T09:13:16;93185.44;;;-144.06;24.79
11017;BME280;54687;50.800;6.772;2023-09-19T09:15:43;93270.09;;;-144.06;24.37
11017;BME280;54687;50.800;6.772;2023-09-19T09:18:10;93331.47;;;-144.06;24.49
11017;BME280;54687;50.800;6.772;2023-09-19T09:20:37;93375.91;;;-144.06;24.43
11017;BME280;54687;50.800;6.772;2023-09-19T09:23:04;93378.00;;;-144.06;24.67
11017;BME280;54687;50.800;6.772;2023-09-19T09:25:49;93282.78;;;-144.06;24.27
11017;BME280;54687;50.800;6.772;2023-09-19T09:28:20;93272.22;;;-144.06;24.52
11017;BME280;54687;50.800;6.772;2023-09-19T09:30:47;93276.44;;;-144.06;24.36
11017;BME280;54687;50.800;6.772;2023-09-19T09:33:16;93191.81;;;-144.06;24.15
11017;BME280;54687;50.800;6.772;2023-09-19T09:35:48;93132.56;;;-144.06;24.09
11017;BME280;54687;50.800;6.772;2023-09-19T09:38:17;93202.38;;;-144.06;24.33
11017;BME280;54687;50.800;6.772;2023-09-19T09:40:50;93155.84;;;-144.06;24.17
11017;BME280;54687;50.800;6.772;2023-09-19T09:43:26;93206.63;;;-144.06;24.39
11017;BME280;54687;50.800;6.772;2023-09-19T09:46:08;93079.66;;;-144.06;24.36
11017;BME280;54687;50.800;6.772;2023-09-19T09:48:57;93227.78;;;-144.06;24.28
11017;BME280;54687;50.800;6.772;2023-09-19T09:51:45;93033.09;;;-144.06;24.33
11017;BME280;54687;50.800;6.772;2023-09-19T09:54:16;92975.97;;;-144.06;23.78
11017;BME280;54687;50.800;6.772;2023-09-19T09:56:56;92944.25;;;-144.06;23.88
11017;BME280;54687;50.800;6.772;2023-09-19T09:59:44;93035.22;;;-144.06;23.86
11017;BME280;54687;50.800;6.772;2023-09-19T10:02:13;93035.22;;;-144.06;23.79
11017;BME280;54687;50.800;6.772;2023-09-19T10:04:40;93066.97;;;-144.06;23.85
11017;BME280;54687;50.800;6.772;2023-09-19T10:07:29;92899.81;;;-144.06;23.92
11017;BME280;54687;50.800;6.772;2023-09-19T10:10:01;92785.56;;;-144.06;23.79
11017;BME280;54687;50.800;6.772;2023-09-19T10:12:42;92635.34;;;-144.06;23.56
11017;BME280;54687;50.800;6.772;2023-09-19T10:15:11;92614.19;;;-144.06;23.48
11017;BME280;54687;50.800;6.772;2023-09-19T10:17:43;92586.69;;;-144.06;23.58
11017;BME280;54687;50.800;6.772;2023-09-19T10:20:12;92529.56;;;-144.06;23.16
11017;BME280;54687;50.800;6.772;2023-09-19T10:22:50;92535.94;;;-144.06;23.36
11017;BME280;54687;50.800;6.772;2023-09-19T10:25:25;92635.34;;;-144.06;22.98
11017;BME280;54687;50.800;6.772;2023-09-19T10:27:56;92707.28;;;-144.06;23.01
11017;BME280;54687;50.800;6.772;2023-09-19T10:30:25;92696.72;;;-144.06;23.36
11017;BME280;54687;50.800;6.772;2023-09-19T10:32:59;92580.34;;;-144.06;22.90
11017;BME280;54687;50.800;6.772;2023-09-19T10:35:27;92567.66;;;-144.06;23.09
11017;BME280;54687;50.800;6.772;2023-09-19T10:37:55;92719.97;;;-144.06;22.97
11017;BME280;54687;50.800;6.772;2023-09-19T10:40:24;92601.50;;;-144.06;22.96
11017;BME280;54687;50.800;6.772;2023-09-19T10:43:01;92690.34;;;-144.06;22.86
11017;BME280;54687;50.800;6.772;2023-09-19T10:45:30;92791.91;;;-144.06;22.74
11017;BME280;54687;50.800;6.772;2023-09-19T10:47:57;92631.13;;;-144.06;22.99
11017;BME280;54687;50.800;6.772;2023-09-19T10:50:24;92783.44;;;-144.06;22.82
11017;BME280;54687;50.800;6.772;2023-09-19T10:52:53;92690.34;;;-144.06;22.78
11017;BME280;54687;50.800;6.772;2023-09-19T10:55:27;92643.81;;;-144.06;22.39
11017;BME280;54687;50.800;6.772;2023-09-19T10:57:55;92751.72;;;-144.06;22.27
11017;BME280;54687;50.800;6.772;2023-09-19T11:00:24;92719.97;;;-144.06;22.88
11017;BME280;54687;50.800;6.772;2023-09-19T11:03:18;92639.59;;;-144.06;22.77
11017;BME280;54687;50.800;6.772;2023-09-19T11:06:05;92677.66;;;-144.06;22.88
11017;BME280;54687;50.800;6.772;2023-09-19T11:08:57;92561.31;;;-144.06;22.86
11017;BME280;54687;50.800;6.772;2023-09-19T11:11:42;92643.81;;;-144.06;22.68
11017;BME280;54687;50.800;6.772;2023-09-19T11:14:15;92550.72;;;-144.06;22.18
11017;BME280;54687;50.800;6.772;2023-09-19T11:23:19;92521.13;;;-144.06;22.41
11017;BME280;54687;50.800;6.772;2023-09-19T11:25:50;92502.06;;;-144.06;22.20
11017;BME280;54687;50.800;6.772;2023-09-19T11:28:31;92373.03;;;-144.06;22.19
11017;BME280;54687;50.800;6.772;2023-09-19T11:30:57;92440.72;;;-144.06;22.31
11017;BME280;54687;50.800;6.772;2023-09-19T11:33:25;92423.81;;;-144.06;22.22
11017;BME280;54687;50.800;6.772;2023-09-19T11:36:03;92533.81;;;-144.06;22.00
11017;BME280;54687;50.800;6.772;2023-09-19T11:39:00;92593.03;;;-144.06;22.18
11017;BME280;54687;50.800;6.772;2023-09-19T11:41:43;92597.28;;;-144.06;22.38
11017;BME280;54687;50.800;6.772;2023-09-19T11:44:36;92601.50;;;-144.06;22.15
11017;BME280;54687;50.800;6.772;2023-09-19T11:47:05;92516.88;;;-144.06;22.18
11017;BME280;54687;50.800;6.772;2023-09-19T11:49:32;92588.81;;;-144.06;22.33
11017;BME280;54687;50.800;6.772;2023-09-19T11:52:00;92599.38;;;-144.06;22.25
11017;BME280;54687;50.800;6.772;2023-09-19T11:54:32;92696.72;;;-144.06;22.54
11017;BME280;54687;50.800;6.772;2023-09-19T11:57:00;92758.06;;;-144.06;22.52
11017;BME280;54687;50.800;6.772;2023-09-19T11:59:29;92751.72;;;-144.06;22.52
11017;BME280;54687;50.800;6.772;2023-09-19T12:01:57;92821.53;;;-144.06;22.50
11017;BME280;54687;50.800;6.772;2023-09-19T12:04:34;92802.50;;;-144.06;22.29
11017;BME280;54687;50.800;6.772;2023-09-19T12:07:04;92745.38;;;-144.06;22.47
11017;BME280;54687;50.800;6.772;2023-09-19T12:09:33;92796.16;;;-144.06;22.50
11017;BME280;54687;50.800;6.772;2023-09-19T12:12:00;92753.84;;;-144.06;22.47
11017;BME280;54687;50.800;6.772;2023-09-19T12:14:27;92643.81;;;-144.06;22.47
11017;BME280;54687;50.800;6.772;2023-09-19T12:16:54;92681.91;;;-144.06;22.03
11017;BME280;54687;50.800;6.772;2023-09-19T12:19:22;92624.78;;;-144.06;22.46
11017;BME280;54687;50.800;6.772;2023-09-19T12:21:59;92618.44;;;-144.06;22.42
11017;BME280;54687;50.800;6.772;2023-09-19T12:24:30;92624.78;;;-144.06;22.62
11017;BME280;54687;50.800;6.772;2023-09-19T12:27:02;92516.88;;;-144.06;22.49
11017;BME280;54687;50.800;6.772;2023-09-19T12:29:31;92614.19;;;-144.06;22.45
11017;BME280;54687;50.800;6.772;2023-09-19T12:31:59;92622.66;;;-144.06;22.35
11017;BME280;54687;50.800;6.772;2023-09-19T12:34:29;92603.63;;;-144.06;22.55
11017;BME280;54687;50.800;6.772;2023-09-19T12:37:10;92707.28;;;-144.06;22.38
11017;BME280;54687;50.800;6.772;2023-09-19T12:39:46;92652.28;;;-144.06;22.61
11017;BME280;54687;50.800;6.772;2023-09-19T12:42:19;92650.16;;;-144.06;22.57
11017;BME280;54687;50.800;6.772;2023-09-19T12:44:48;92652.28;;;-144.06;22.45
11017;BME280;54687;50.800;6.772;2023-09-19T12:47:17;92645.94;;;-144.06;22.39
11017;BME280;54687;50.800;6.772;2023-09-19T12:50:07;92605.75;;;-144.06;22.40
11017;BME280;54687;50.800;6.772;2023-09-19T12:52:39;92546.50;;;-144.06;22.75
11017;BME280;54687;50.800;6.772;2023-09-19T12:55:06;92601.50;;;-144.06;22.47
11017;BME280;54687;50.800;6.772;2023-09-19T12:57:36;92681.91;;;-144.06;22.51
11017;BME280;54687;50.800;6.772;2023-09-19T13:00:06;92609.97;;;-144.06;22.73